Time;durP1;ratioP1;P1;durP2;ratioP2;P2;SDS_P1;SDS_P2;PMS_P1;PMS_P2;Temp;Humidity;BMP_temperature;BMP_pressure;BME280_temperature;BME280_humidity;BME280_pressure;Samples;Min_cycle;Max_cycle;Signal;HPM_P1;HPM_P2
2023/03/10 00:01:36;;;;;;;;;;;1.20;99.90;;;;;;5057518;28;19920;-68
2023/03/10 00:04:02;;;;;;;;;;;1.20;99.90;;;;;;4993746;28;185892;-68
2023/03/10 00:06:31;;;;;;;;;;;1.10;99.90;;;;;;5032780;28;19928;-67
2023/03/10 00:08:58;;;;;;;;;;;1.20;99.90;;;;;;5007552;28;208789;-70
2023/03/10 00:11:24;;;;;;;;;;;1.20;99.90;;;;;;5030004;28;19971;-71
2023/03/10 00:13:50;;;;;;;;;;;1.10;99.90;;;;;;5010383;28;209072;-70
2023/03/10 00:16:16;;;;;;;;;;;1.20;99.90;;;;;;5046928;28;19928;-69
2023/03/10 00:18:42;;;;;;;;;;;1.10;99.90;;;;;;5015693;28;205778;-69
2023/03/10 00:21:12;;;;;;;;;;;1.20;99.90;;;;;;5081879;28;19966;-70
2023/03/10 00:23:38;;;;;;;;;;;1.20;99.90;;;;;;5001298;28;208535;-70
2023/03/10 00:26:04;;;;;;;;;;;1.20;99.90;;;;;;5081474;28;19921;-70
2023/03/10 00:28:30;;;;;;;;;;;1.20;99.90;;;;;;5061877;28;209069;-71
2023/03/10 00:31:03;;;;;;;;;;;1.10;99.90;;;;;;5020654;28;193197;-70
2023/03/10 00:33:30;;;;;;;;;;;1.20;99.90;;;;;;5050743;28;225045;-71
2023/03/10 00:36:28;;;;;;;;;;;1.20;99.90;;;;;;5036998;28;190822;-72
2023/03/10 00:38:55;;;;;;;;;;;1.20;99.90;;;;;;5005436;28;206360;-71
2023/03/10 00:41:22;;;;;;;;;;;1.20;99.90;;;;;;5055322;28;20405;-71
2023/03/10 00:43:48;;;;;;;;;;;1.20;99.90;;;;;;4999006;28;208293;-70
2023/03/10 00:46:14;;;;;;;;;;;1.20;99.90;;;;;;5030034;28;19925;-70
2023/03/10 00:48:40;;;;;;;;;;;1.20;99.90;;;;;;5000109;28;206892;-71
2023/03/10 00:51:06;;;;;;;;;;;1.20;99.90;;;;;;5085596;28;20351;-70
2023/03/10 00:53:33;;;;;;;;;;;1.10;99.90;;;;;;5055382;28;208157;-70
2023/03/10 00:56:00;;;;;;;;;;;1.10;99.90;;;;;;5019268;28;101696;-70
2023/03/10 00:58:26;;;;;;;;;;;1.10;99.90;;;;;;5074989;28;19932;-70
2023/03/10 01:00:53;;;;;;;;;;;1.20;99.90;;;;;;5026837;28;206480;-70
2023/03/10 01:03:20;;;;;;;;;;;1.10;99.90;;;;;;5076404;28;19924;-71
2023/03/10 01:05:47;;;;;;;;;;;1.20;99.90;;;;;;5024340;28;229357;-71
2023/03/10 01:08:13;;;;;;;;;;;1.20;99.90;;;;;;5062330;28;19931;-70
2023/03/10 01:10:38;;;;;;;;;;;1.10;99.90;;;;;;5011232;28;192283;-70
2023/03/10 01:13:04;;;;;;;;;;;1.20;99.90;;;;;;5062351;28;20269;-70
2023/03/10 01:15:30;;;;;;;;;;;1.20;99.90;;;;;;4986451;28;193786;-70
2023/03/10 01:17:56;;;;;;;;;;;1.10;99.90;;;;;;5062474;28;19930;-70
2023/03/10 01:20:22;;;;;;;;;;;1.20;99.90;;;;;;4981155;28;207214;-72
2023/03/10 01:22:48;;;;;;;;;;;1.20;99.90;;;;;;5054490;28;20522;-70
2023/03/10 01:25:14;;;;;;;;;;;1.20;99.90;;;;;;5014018;28;209042;-70
2023/03/10 01:27:41;;;;;;;;;;;1.10;99.90;;;;;;5078391;28;20014;-70
2023/03/10 01:30:07;;;;;;;;;;;1.10;99.90;;;;;;5039163;28;209313;-71
2023/03/10 01:32:33;;;;;;;;;;;1.10;99.90;;;;;;5079488;28;19931;-70
2023/03/10 01:34:59;;;;;;;;;;;1.10;99.90;;;;;;4984876;28;208462;-70
2023/03/10 01:37:25;;;;;;;;;;;1.20;99.90;;;;;;5053951;28;19928;-70
2023/03/10 01:39:51;;;;;;;;;;;1.20;99.90;;;;;;5015457;28;207854;-71
2023/03/10 01:42:17;;;;;;;;;;;1.20;99.90;;;;;;5060005;28;20007;-70
2023/03/10 01:45:02;;;;;;;;;;;1.10;99.90;;;;;;4998394;28;207048;-70
2023/03/10 01:47:28;;;;;;;;;;;1.20;99.90;;;;;;5058845;28;19920;-70
2023/03/10 01:49:54;;;;;;;;;;;1.20;99.90;;;;;;5000069;28;214649;-71
2023/03/10 01:52:22;;;;;;;;;;;1.10;99.90;;;;;;5069602;28;20500;-69
2023/03/10 01:54:50;;;;;;;;;;;1.20;99.90;;;;;;5010130;28;208192;-71
2023/03/10 01:57:19;;;;;;;;;;;1.20;99.90;;;;;;5047213;28;19925;-69
2023/03/10 01:59:45;;;;;;;;;;;1.20;99.90;;;;;;4997521;28;209072;-70
2023/03/10 02:02:11;;;;;;;;;;;1.20;99.90;;;;;;5058267;28;19944;-70
2023/03/10 02:04:42;;;;;;;;;;;1.20;99.90;;;;;;4984040;28;206471;-70
2023/03/10 02:07:08;;;;;;;;;;;1.20;99.90;;;;;;5067766;28;20377;-70
2023/03/10 02:09:37;;;;;;;;;;;1.20;99.90;;;;;;5011294;28;208908;-70
2023/03/10 02:12:04;;;;;;;;;;;1.20;99.90;;;;;;5075472;28;19925;-70
2023/03/10 02:14:30;;;;;;;;;;;1.20;99.90;;;;;;5006228;28;172239;-70
2023/03/10 02:16:56;;;;;;;;;;;1.10;99.90;;;;;;5067665;28;19952;-70
2023/03/10 02:19:30;;;;;;;;;;;1.20;99.90;;;;;;5009433;28;186900;-71
2023/03/10 02:22:02;;;;;;;;;;;1.20;99.90;;;;;;5059549;28;19924;-71
2023/03/10 02:24:32;;;;;;;;;;;1.20;99.90;;;;;;5010058;28;208044;-70
2023/03/10 02:27:04;;;;;;;;;;;1.20;99.90;;;;;;5060646;28;20372;-71
2023/03/10 02:29:36;;;;;;;;;;;1.20;99.90;;;;;;5021530;28;211374;-70
2023/03/10 02:32:03;;;;;;;;;;;1.20;99.90;;;;;;5056564;28;19924;-70
2023/03/10 02:34:29;;;;;;;;;;;1.20;99.90;;;;;;5005025;28;229519;-71
2023/03/10 02:36:55;;;;;;;;;;;1.20;99.90;;;;;;5058124;28;19925;-70
2023/03/10 02:39:21;;;;;;;;;;;1.10;99.90;;;;;;5005484;28;208352;-70
2023/03/10 02:41:47;;;;;;;;;;;1.10;99.90;;;;;;5057634;28;19928;-71
2023/03/10 02:44:15;;;;;;;;;;;1.10;99.90;;;;;;5006342;28;206001;-71
2023/03/10 02:46:41;;;;;;;;;;;1.10;99.90;;;;;;5066688;28;21392;-71
2023/03/10 02:49:09;;;;;;;;;;;1.10;99.90;;;;;;5012816;28;209036;-70
2023/03/10 02:51:37;;;;;;;;;;;1.10;99.90;;;;;;5046723;28;19928;-70
2023/03/10 02:54:04;;;;;;;;;;;1.10;99.90;;;;;;5018551;28;210682;-71
2023/03/10 02:56:31;;;;;;;;;;;1.10;99.90;;;;;;5060679;28;19928;-72
2023/03/10 02:58:57;;;;;;;;;;;1.10;99.90;;;;;;5019928;28;209949;-72
2023/03/10 03:01:25;;;;;;;;;;;1.10;99.90;;;;;;5062019;28;19931;-72
2023/03/10 03:03:51;;;;;;;;;;;1.10;99.90;;;;;;4991024;28;211879;-72
2023/03/10 03:06:17;;;;;;;;;;;1.00;99.90;;;;;;5048078;28;20729;-72
2023/03/10 03:08:43;;;;;;;;;;;1.00;99.90;;;;;;5022563;28;207476;-71
2023/03/10 03:11:09;;;;;;;;;;;1.00;99.90;;;;;;5058012;28;19928;-71
2023/03/10 03:13:35;;;;;;;;;;;1.00;99.90;;;;;;5028801;28;208972;-72
2023/03/10 03:16:03;;;;;;;;;;;1.00;99.90;;;;;;5059215;28;19924;-72
2023/03/10 03:18:29;;;;;;;;;;;1.00;99.90;;;;;;5064543;28;218775;-73
2023/03/10 03:20:55;;;;;;;;;;;1.00;99.90;;;;;;5002787;28;197530;-72
2023/03/10 03:23:21;;;;;;;;;;;1.00;99.90;;;;;;5053794;28;20403;-72
2023/03/10 03:25:47;;;;;;;;;;;1.00;99.90;;;;;;4997398;28;206707;-72
2023/03/10 03:28:13;;;;;;;;;;;1.00;99.90;;;;;;5059947;28;20570;-72
2023/03/10 03:30:39;;;;;;;;;;;1.00;99.90;;;;;;4986281;28;206347;-73
2023/03/10 03:33:06;;;;;;;;;;;1.00;99.90;;;;;;5052464;28;19928;-71
2023/03/10 03:35:33;;;;;;;;;;;1.00;99.90;;;;;;5001403;28;208418;-72
2023/03/10 03:38:00;;;;;;;;;;;1.00;99.90;;;;;;5072833;28;19924;-70
2023/03/10 03:40:27;;;;;;;;;;;1.00;99.90;;;;;;5013682;28;223703;-71
2023/03/10 03:42:54;;;;;;;;;;;0.90;99.90;;;;;;5061130;28;19924;-71
2023/03/10 03:45:21;;;;;;;;;;;1.00;99.90;;;;;;5012226;28;208546;-71
2023/03/10 03:47:47;;;;;;;;;;;1.00;99.90;;;;;;5059929;28;19929;-71
2023/03/10 03:50:13;;;;;;;;;;;1.00;99.90;;;;;;5005110;28;209103;-71
2023/03/10 03:52:40;;;;;;;;;;;1.00;99.90;;;;;;5055427;28;19925;-70
2023/03/10 03:55:06;;;;;;;;;;;1.00;99.90;;;;;;5005130;28;208116;-71
2023/03/10 03:57:33;;;;;;;;;;;1.00;99.90;;;;;;5054910;28;19936;-71
2023/03/10 03:59:58;;;;;;;;;;;1.00;99.90;;;;;;5024915;28;216047;-71
2023/03/10 04:02:24;;;;;;;;;;;1.00;99.90;;;;;;5095385;28;19943;-71
2023/03/10 04:04:52;;;;;;;;;;;1.00;99.90;;;;;;5014199;28;120627;-71
2023/03/10 04:07:17;;;;;;;;;;;1.00;99.90;;;;;;5066244;28;19928;-71
2023/03/10 04:09:43;;;;;;;;;;;1.00;99.90;;;;;;5005524;28;206675;-71
2023/03/10 04:12:09;;;;;;;;;;;1.00;99.90;;;;;;5049752;28;20010;-70
2023/03/10 04:14:35;;;;;;;;;;;1.00;99.90;;;;;;5014942;28;209341;-71
2023/03/10 04:17:02;;;;;;;;;;;1.00;99.90;;;;;;5079745;28;19928;-70
2023/03/10 04:19:28;;;;;;;;;;;1.00;99.90;;;;;;5006004;28;201506;-70
2023/03/10 04:21:54;;;;;;;;;;;0.90;99.90;;;;;;5044612;28;19935;-70
2023/03/10 04:24:20;;;;;;;;;;;1.00;99.90;;;;;;5004822;28;208864;-70
2023/03/10 04:26:46;;;;;;;;;;;1.00;99.90;;;;;;5043905;28;19924;-70
2023/03/10 04:29:12;;;;;;;;;;;1.00;99.90;;;;;;4998690;28;206700;-70
2023/03/10 04:31:38;;;;;;;;;;;1.00;99.90;;;;;;5061096;28;20636;-70
2023/03/10 04:34:04;;;;;;;;;;;0.90;99.90;;;;;;5018545;28;206130;-69
2023/03/10 04:36:30;;;;;;;;;;;0.90;99.90;;;;;;5052866;28;19952;-70
2023/03/10 04:38:56;;;;;;;;;;;1.00;99.90;;;;;;5001112;28;200323;-69
2023/03/10 04:41:22;;;;;;;;;;;0.90;99.90;;;;;;5067877;28;19925;-69
2023/03/10 04:43:48;;;;;;;;;;;0.90;99.90;;;;;;4992648;28;208776;-69
2023/03/10 04:46:14;;;;;;;;;;;0.90;99.90;;;;;;5024651;28;19928;-69
2023/03/10 04:48:40;;;;;;;;;;;0.90;99.90;;;;;;5000721;28;208076;-69
2023/03/10 04:51:08;;;;;;;;;;;0.90;99.90;;;;;;5041619;28;19935;-69
2023/03/10 04:53:35;;;;;;;;;;;0.90;99.90;;;;;;5042184;28;208666;-69
2023/03/10 04:56:02;;;;;;;;;;;0.90;99.90;;;;;;5047026;28;20807;-69
2023/03/10 04:58:28;;;;;;;;;;;0.90;99.90;;;;;;5058044;28;20757;-69
2023/03/10 05:00:55;;;;;;;;;;;0.90;99.90;;;;;;5016524;28;206788;-69
2023/03/10 05:03:21;;;;;;;;;;;0.90;99.90;;;;;;5075931;28;19936;-69
2023/03/10 05:05:47;;;;;;;;;;;0.90;99.90;;;;;;4950599;28;228593;-68
2023/03/10 05:08:13;;;;;;;;;;;0.90;99.90;;;;;;5065023;28;19924;-70
2023/03/10 05:10:39;;;;;;;;;;;0.90;99.90;;;;;;4981228;28;91874;-69
2023/03/10 05:13:06;;;;;;;;;;;0.90;99.90;;;;;;5061681;28;19921;-69
2023/03/10 05:15:33;;;;;;;;;;;0.90;99.90;;;;;;4971723;28;209371;-69
2023/03/10 05:17:59;;;;;;;;;;;0.90;99.90;;;;;;5058569;28;19999;-69
2023/03/10 05:20:25;;;;;;;;;;;0.90;99.90;;;;;;5002156;28;235875;-68
2023/03/10 05:22:51;;;;;;;;;;;0.90;99.90;;;;;;5057821;28;20381;-68
2023/03/10 05:25:17;;;;;;;;;;;0.90;99.90;;;;;;4972469;28;206161;-69
2023/03/10 05:27:42;;;;;;;;;;;0.90;99.90;;;;;;5058097;28;19934;-69
2023/03/10 05:30:10;;;;;;;;;;;0.90;99.90;;;;;;4976472;28;207191;-69
2023/03/10 05:32:36;;;;;;;;;;;0.90;99.90;;;;;;5058476;28;20297;-69
2023/03/10 05:35:02;;;;;;;;;;;0.90;99.90;;;;;;5011858;28;211842;-69
2023/03/10 05:37:28;;;;;;;;;;;0.90;99.90;;;;;;5064679;28;19928;-68
2023/03/10 05:39:54;;;;;;;;;;;0.90;99.90;;;;;;4994341;28;210210;-69
2023/03/10 05:42:21;;;;;;;;;;;0.90;99.90;;;;;;5065481;28;19930;-69
2023/03/10 05:44:47;;;;;;;;;;;0.80;99.90;;;;;;5003338;28;159421;-69
2023/03/10 05:47:17;;;;;;;;;;;0.90;99.90;;;;;;5056941;28;19924;-69
2023/03/10 05:49:43;;;;;;;;;;;0.90;99.90;;;;;;5004023;28;187194;-68
2023/03/10 05:52:10;;;;;;;;;;;0.90;99.90;;;;;;5057055;28;19924;-69
2023/03/10 05:54:35;;;;;;;;;;;0.90;99.90;;;;;;5001520;28;206025;-69
2023/03/10 05:57:01;;;;;;;;;;;0.90;99.90;;;;;;5060301;28;19928;-69
2023/03/10 05:59:27;;;;;;;;;;;0.90;99.90;;;;;;5000884;28;208674;-69
2023/03/10 06:01:53;;;;;;;;;;;0.90;99.90;;;;;;5043375;28;19932;-69
2023/03/10 06:04:19;;;;;;;;;;;0.80;99.90;;;;;;4988513;28;211005;-69
2023/03/10 06:06:45;;;;;;;;;;;0.90;99.90;;;;;;5060594;28;19924;-69
2023/03/10 06:09:11;;;;;;;;;;;0.90;99.90;;;;;;5028076;28;208490;-69
2023/03/10 06:11:37;;;;;;;;;;;0.90;99.90;;;;;;5087752;28;19924;-69
2023/03/10 06:14:03;;;;;;;;;;;0.90;99.90;;;;;;5019103;28;212345;-69
2023/03/10 06:16:29;;;;;;;;;;;0.90;99.90;;;;;;5034488;28;20015;-69
2023/03/10 06:18:56;;;;;;;;;;;0.90;99.90;;;;;;4996920;28;209035;-69
2023/03/10 06:21:22;;;;;;;;;;;1.00;99.90;;;;;;5034609;28;19925;-70
2023/03/10 06:23:48;;;;;;;;;;;0.90;99.90;;;;;;4999350;28;237295;-68
2023/03/10 06:26:14;;;;;;;;;;;1.00;99.90;;;;;;5039585;28;19937;-69
2023/03/10 06:28:41;;;;;;;;;;;1.00;99.90;;;;;;5002759;28;209852;-68
2023/03/10 06:31:11;;;;;;;;;;;1.00;99.90;;;;;;5056762;28;19920;-69
2023/03/10 06:33:37;;;;;;;;;;;1.00;99.90;;;;;;5013569;28;219778;-68
2023/03/10 06:36:03;;;;;;;;;;;1.00;99.90;;;;;;5059200;28;19964;-69
2023/03/10 06:38:29;;;;;;;;;;;1.00;99.90;;;;;;5070215;28;209324;-68
2023/03/10 06:40:56;;;;;;;;;;;1.00;99.90;;;;;;5024192;28;116357;-69
2023/03/10 06:43:22;;;;;;;;;;;1.10;99.90;;;;;;5058469;28;19928;-68
2023/03/10 06:45:48;;;;;;;;;;;1.10;99.90;;;;;;5004422;28;231056;-70
2023/03/10 06:48:15;;;;;;;;;;;1.10;99.90;;;;;;5074383;28;19920;-70
2023/03/10 06:50:41;;;;;;;;;;;1.10;99.90;;;;;;5008268;28;197840;-70
2023/03/10 06:53:08;;;;;;;;;;;1.10;99.90;;;;;;5059180;28;20674;-70
2023/03/10 06:55:34;;;;;;;;;;;1.10;99.90;;;;;;5013976;28;76665;-70
2023/03/10 06:58:00;;;;;;;;;;;1.10;99.90;;;;;;5048419;28;19932;-70
2023/03/10 07:00:26;;;;;;;;;;;1.10;99.90;;;;;;4988690;28;224058;-70
2023/03/10 07:02:52;;;;;;;;;;;1.20;99.90;;;;;;5028785;28;20217;-70
2023/03/10 07:05:18;;;;;;;;;;;1.20;99.90;;;;;;4957775;28;229609;-70
2023/03/10 07:07:44;;;;;;;;;;;1.20;99.90;;;;;;5083597;28;20523;-70
2023/03/10 07:10:10;;;;;;;;;;;1.20;99.90;;;;;;5035788;28;72126;-69
2023/03/10 07:12:36;;;;;;;;;;;1.30;99.90;;;;;;5076525;28;19924;-70
2023/03/10 07:15:03;;;;;;;;;;;1.30;99.90;;;;;;5050185;28;208472;-70
2023/03/10 07:17:29;;;;;;;;;;;1.30;99.90;;;;;;5075390;28;20601;-70
2023/03/10 07:19:55;;;;;;;;;;;1.30;99.90;;;;;;5011096;28;215341;-70
2023/03/10 07:22:20;;;;;;;;;;;1.40;99.90;;;;;;5065610;28;20637;-69
2023/03/10 07:24:46;;;;;;;;;;;1.50;99.90;;;;;;5011730;28;219655;-70
2023/03/10 07:27:12;;;;;;;;;;;1.50;99.90;;;;;;5072165;28;20012;-69
2023/03/10 07:29:38;;;;;;;;;;;1.50;99.90;;;;;;5035169;28;208344;-70
2023/03/10 07:32:04;;;;;;;;;;;1.50;99.90;;;;;;5084847;28;20296;-68
2023/03/10 07:34:30;;;;;;;;;;;1.50;99.90;;;;;;5001254;28;206206;-70
2023/03/10 07:36:56;;;;;;;;;;;1.50;99.90;;;;;;5050459;28;20293;-70
2023/03/10 07:39:22;;;;;;;;;;;1.50;99.90;;;;;;5013185;28;211067;-70
2023/03/10 07:41:48;;;;;;;;;;;1.60;99.90;;;;;;5044419;28;20613;-70
2023/03/10 07:44:14;;;;;;;;;;;1.60;99.90;;;;;;4997668;28;184177;-71
2023/03/10 07:46:40;;;;;;;;;;;1.50;99.90;;;;;;5028779;28;19924;-71
2023/03/10 07:49:06;;;;;;;;;;;1.50;99.90;;;;;;5002309;28;230609;-70
2023/03/10 07:51:32;;;;;;;;;;;1.50;99.90;;;;;;5005455;28;19932;-70
2023/03/10 07:53:58;;;;;;;;;;;1.50;99.90;;;;;;5008030;28;219304;-70
2023/03/10 07:56:24;;;;;;;;;;;1.50;99.90;;;;;;5062240;28;19928;-70
2023/03/10 07:58:50;;;;;;;;;;;1.50;99.90;;;;;;5013559;28;209555;-70
2023/03/10 08:01:17;;;;;;;;;;;1.50;99.90;;;;;;5072507;28;19928;-69
2023/03/10 08:03:44;;;;;;;;;;;1.60;99.90;;;;;;5004542;28;225775;-69
2023/03/10 08:06:21;;;;;;;;;;;1.60;99.90;;;;;;5038033;28;19939;-69
2023/03/10 08:08:47;;;;;;;;;;;1.60;99.90;;;;;;5008018;28;227491;-70
2023/03/10 08:11:13;;;;;;;;;;;1.70;99.90;;;;;;5044045;28;19928;-69
2023/03/10 08:13:39;;;;;;;;;;;1.70;99.90;;;;;;4997137;28;216261;-68
2023/03/10 08:16:06;;;;;;;;;;;1.70;99.90;;;;;;5057155;28;19957;-70
2023/03/10 08:18:32;;;;;;;;;;;1.70;99.90;;;;;;5041285;28;207534;-70
2023/03/10 08:20:58;;;;;;;;;;;1.70;99.90;;;;;;5028272;28;173096;-70
2023/03/10 08:23:24;;;;;;;;;;;1.70;99.90;;;;;;5056784;28;20191;-69
2023/03/10 08:25:50;;;;;;;;;;;1.80;99.90;;;;;;5025250;28;168365;-70
2023/03/10 08:28:16;;;;;;;;;;;1.80;99.90;;;;;;5075933;28;19927;-70
2023/03/10 08:30:42;;;;;;;;;;;1.80;99.90;;;;;;5015946;28;208208;-70
2023/03/10 08:33:08;;;;;;;;;;;1.80;99.90;;;;;;5055330;28;19946;-69
2023/03/10 08:35:35;;;;;;;;;;;1.90;99.90;;;;;;5034575;28;237720;-70
2023/03/10 08:38:01;;;;;;;;;;;1.80;99.90;;;;;;5074836;28;19928;-70
2023/03/10 08:40:27;;;;;;;;;;;1.80;99.90;;;;;;5007353;28;206639;-70
2023/03/10 08:42:53;;;;;;;;;;;1.80;99.90;;;;;;5059557;28;20394;-69
2023/03/10 08:45:19;;;;;;;;;;;1.80;99.90;;;;;;4984937;28;224462;-70
2023/03/10 08:47:45;;;;;;;;;;;1.90;99.90;;;;;;5058621;28;20292;-69
2023/03/10 08:50:11;;;;;;;;;;;1.90;99.90;;;;;;5001418;28;208586;-69
2023/03/10 08:52:38;;;;;;;;;;;1.80;99.90;;;;;;5061686;28;19928;-69
2023/03/10 08:55:04;;;;;;;;;;;1.80;99.90;;;;;;4986011;28;100220;-70
2023/03/10 08:57:30;;;;;;;;;;;1.80;99.90;;;;;;5056866;28;19939;-70
2023/03/10 08:59:56;;;;;;;;;;;1.80;99.90;;;;;;4997394;28;209581;-70
2023/03/10 09:02:24;;;;;;;;;;;1.80;99.90;;;;;;5039122;28;19924;-70
2023/03/10 09:04:50;;;;;;;;;;;1.90;99.90;;;;;;5008696;27;204796;-70
2023/03/10 09:07:16;;;;;;;;;;;1.80;99.90;;;;;;5050639;28;19921;-70
2023/03/10 09:09:42;;;;;;;;;;;1.90;99.90;;;;;;4980108;28;209334;-69
2023/03/10 09:12:09;;;;;;;;;;;1.80;99.90;;;;;;5044366;28;19927;-70
2023/03/10 09:14:35;;;;;;;;;;;1.80;99.90;;;;;;5002969;28;212329;-69
2023/03/10 09:17:01;;;;;;;;;;;1.90;99.90;;;;;;5076035;28;19924;-70
2023/03/10 09:19:27;;;;;;;;;;;1.90;99.90;;;;;;4999786;28;143753;-70
2023/03/10 09:21:56;;;;;;;;;;;1.80;99.90;;;;;;5033996;28;19932;-70
2023/03/10 09:24:22;;;;;;;;;;;1.90;99.90;;;;;;5005397;28;234499;-70
2023/03/10 09:26:48;;;;;;;;;;;2.00;99.90;;;;;;5073953;28;19940;-70
2023/03/10 09:29:14;;;;;;;;;;;1.90;99.90;;;;;;5026981;28;211991;-71
2023/03/10 09:31:42;;;;;;;;;;;1.90;99.90;;;;;;5070239;28;19924;-70
2023/03/10 09:34:08;;;;;;;;;;;1.90;99.90;;;;;;5021942;28;225955;-70
2023/03/10 09:36:34;;;;;;;;;;;2.00;99.90;;;;;;5069172;28;19924;-69
2023/03/10 09:39:00;;;;;;;;;;;2.00;99.90;;;;;;5017396;28;207950;-69
2023/03/10 09:41:33;;;;;;;;;;;2.00;99.90;;;;;;5039929;28;19997;-69
2023/03/10 09:44:16;;;;;;;;;;;2.10;99.90;;;;;;5016117;28;218750;-70
2023/03/10 09:46:49;;;;;;;;;;;2.10;99.90;;;;;;5059809;28;19939;-69
2023/03/10 09:49:24;;;;;;;;;;;2.10;99.90;;;;;;5011021;28;206664;-69
2023/03/10 09:51:51;;;;;;;;;;;2.10;99.90;;;;;;5057718;28;19959;-69
2023/03/10 09:54:22;;;;;;;;;;;2.20;99.90;;;;;;5009072;28;208593;-69
2023/03/10 09:56:49;;;;;;;;;;;2.10;99.90;;;;;;5069131;28;19979;-70
2023/03/10 09:59:17;;;;;;;;;;;2.10;99.90;;;;;;5013830;28;211904;-70
2023/03/10 10:01:45;;;;;;;;;;;2.10;99.90;;;;;;5049417;28;19926;-70
2023/03/10 10:04:14;;;;;;;;;;;2.10;99.90;;;;;;4982590;28;350764;-70
2023/03/10 10:06:45;;;;;;;;;;;2.10;99.90;;;;;;5066918;28;19936;-69
2023/03/10 10:09:11;;;;;;;;;;;2.10;99.90;;;;;;5002551;28;208586;-69
2023/03/10 10:11:38;;;;;;;;;;;2.10;99.90;;;;;;5035515;28;20364;-69
2023/03/10 10:14:07;;;;;;;;;;;2.10;99.90;;;;;;5010035;28;210381;-68
2023/03/10 10:16:40;;;;;;;;;;;2.00;99.90;;;;;;5057513;28;19929;-70
2023/03/10 10:19:26;;;;;;;;;;;2.00;99.90;;;;;;5003698;28;206533;-69
2023/03/10 10:21:58;;;;;;;;;;;2.00;99.90;;;;;;5063137;28;20361;-69
2023/03/10 10:24:24;;;;;;;;;;;1.90;99.90;;;;;;5006023;28;208947;-69
2023/03/10 10:26:50;;;;;;;;;;;2.00;99.90;;;;;;5048591;28;19931;-69
2023/03/10 10:29:36;;;;;;;;;;;1.90;99.90;;;;;;5016914;28;91162;-69
2023/03/10 10:32:05;;;;;;;;;;;2.00;99.90;;;;;;5069249;28;20693;-69
2023/03/10 10:34:32;;;;;;;;;;;2.00;99.90;;;;;;5032170;28;206921;-69
2023/03/10 10:36:58;;;;;;;;;;;2.00;99.90;;;;;;5077995;28;19924;-69
2023/03/10 10:39:24;;;;;;;;;;;2.00;99.90;;;;;;5019532;28;209269;-70
2023/03/10 10:41:50;;;;;;;;;;;2.00;99.90;;;;;;5055376;28;19929;-70
2023/03/10 10:44:16;;;;;;;;;;;2.00;99.90;;;;;;5006466;28;217964;-71
2023/03/10 10:46:53;;;;;;;;;;;2.10;99.90;;;;;;5061199;28;20044;-71
2023/03/10 10:49:26;;;;;;;;;;;2.10;99.90;;;;;;4996451;28;207740;-72
2023/03/10 10:51:59;;;;;;;;;;;2.10;99.90;;;;;;5061928;28;19931;-71
2023/03/10 10:54:28;;;;;;;;;;;2.10;99.90;;;;;;5013917;28;208608;-71
2023/03/10 10:56:55;;;;;;;;;;;2.10;99.90;;;;;;5064662;28;20304;-69
2023/03/10 10:59:25;;;;;;;;;;;2.00;99.90;;;;;;5012253;28;240678;-68
2023/03/10 11:01:53;;;;;;;;;;;2.00;99.90;;;;;;5065721;28;19935;-69
2023/03/10 11:04:19;;;;;;;;;;;2.10;99.90;;;;;;4997675;28;212578;-67
2023/03/10 11:06:45;;;;;;;;;;;2.10;99.90;;;;;;5067591;28;19920;-68
2023/03/10 11:09:13;;;;;;;;;;;2.10;99.90;;;;;;5016070;28;218354;-67
2023/03/10 11:12:20;;;;;;;;;;;2.10;99.90;;;;;;5064973;28;19935;-69
2023/03/10 11:15:03;;;;;;;;;;;2.10;99.90;;;;;;4966000;28;206750;-68
2023/03/10 11:17:29;;;;;;;;;;;2.10;99.90;;;;;;4996199;28;19925;-68
2023/03/10 11:20:13;;;;;;;;;;;2.00;99.90;;;;;;4970621;28;210052;-69
2023/03/10 11:22:57;;;;;;;;;;;2.00;99.90;;;;;;5027405;28;19929;-68
2023/03/10 11:25:35;;;;;;;;;;;2.10;99.90;;;;;;4965496;28;168227;-69
2023/03/10 11:28:04;;;;;;;;;;;2.00;99.90;;;;;;4993848;28;20064;-69
2023/03/10 11:30:34;;;;;;;;;;;2.00;99.90;;;;;;4965614;28;206463;-69
2023/03/10 11:33:00;;;;;;;;;;;2.00;99.90;;;;;;4998215;28;19925;-69
2023/03/10 11:35:26;;;;;;;;;;;1.90;99.90;;;;;;4969149;28;154075;-68
2023/03/10 11:37:58;;;;;;;;;;;1.90;99.90;;;;;;5004890;28;19933;-69
2023/03/10 11:40:30;;;;;;;;;;;1.90;99.90;;;;;;4941380;28;219803;-68
2023/03/10 11:43:00;;;;;;;;;;;1.90;99.90;;;;;;5012398;28;20009;-69
2023/03/10 11:45:26;;;;;;;;;;;1.80;99.90;;;;;;4961543;28;212954;-70
2023/03/10 11:48:16;;;;;;;;;;;1.80;99.90;;;;;;5074679;28;19924;-70
2023/03/10 11:51:14;;;;;;;;;;;1.70;99.90;;;;;;5035071;28;208477;-70
2023/03/10 11:53:50;;;;;;;;;;;1.70;99.90;;;;;;5001878;28;206778;-70
2023/03/10 11:56:19;;;;;;;;;;;1.70;99.90;;;;;;5030152;28;19931;-68
2023/03/10 11:58:47;;;;;;;;;;;1.60;99.90;;;;;;4981636;28;206854;-68
2023/03/10 12:01:25;;;;;;;;;;;1.60;99.90;;;;;;5028611;28;19925;-67
2023/03/10 12:03:58;;;;;;;;;;;1.60;99.90;;;;;;4970737;28;204413;-68
2023/03/10 12:06:28;;;;;;;;;;;1.60;99.90;;;;;;5027391;28;19933;-67
2023/03/10 12:08:55;;;;;;;;;;;1.50;99.90;;;;;;4951575;28;180221;-67
2023/03/10 12:11:22;;;;;;;;;;;1.60;99.90;;;;;;5011155;28;19929;-68
2023/03/10 12:13:50;;;;;;;;;;;1.60;99.90;;;;;;4987242;28;150867;-67
2023/03/10 12:16:18;;;;;;;;;;;1.70;99.90;;;;;;5017956;28;19929;-68
2023/03/10 12:18:44;;;;;;;;;;;1.70;99.90;;;;;;4989132;28;209148;-68
2023/03/10 12:21:20;;;;;;;;;;;1.80;99.90;;;;;;5036366;28;19924;-67
2023/03/10 12:23:47;;;;;;;;;;;1.90;99.90;;;;;;4989894;28;206498;-67
2023/03/10 12:26:14;;;;;;;;;;;1.90;99.90;;;;;;5049575;28;20536;-68
2023/03/10 12:28:40;;;;;;;;;;;2.00;99.90;;;;;;4975830;28;227197;-68
2023/03/10 12:31:10;;;;;;;;;;;2.00;99.90;;;;;;5064233;28;19924;-68
2023/03/10 12:33:36;;;;;;;;;;;2.10;99.90;;;;;;5021337;28;209557;-68
2023/03/10 12:36:13;;;;;;;;;;;2.10;99.90;;;;;;5081834;28;20418;-66
2023/03/10 12:38:58;;;;;;;;;;;2.20;99.90;;;;;;5007660;28;208442;-68
2023/03/10 12:41:27;;;;;;;;;;;2.20;99.90;;;;;;5059018;28;21361;-67
2023/03/10 12:43:55;;;;;;;;;;;2.30;99.90;;;;;;5027421;28;206324;-67
2023/03/10 12:46:21;;;;;;;;;;;2.30;99.90;;;;;;5062407;28;19927;-67
2023/03/10 12:48:52;;;;;;;;;;;2.20;99.90;;;;;;5007931;28;224199;-66
2023/03/10 12:51:21;;;;;;;;;;;2.20;99.90;;;;;;5049207;28;19924;-66
2023/03/10 12:53:50;;;;;;;;;;;2.30;99.90;;;;;;5012359;28;208854;-66
2023/03/10 12:56:18;;;;;;;;;;;2.30;99.90;;;;;;5055050;28;20317;-66
2023/03/10 12:58:59;;;;;;;;;;;2.30;99.90;;;;;;5031847;28;208370;-67
2023/03/10 13:01:30;;;;;;;;;;;2.30;99.90;;;;;;5050521;28;19940;-67
2023/03/10 13:03:56;;;;;;;;;;;2.40;99.90;;;;;;5014485;28;193528;-68
2023/03/10 13:06:23;;;;;;;;;;;2.40;99.90;;;;;;5068590;28;19924;-68
2023/03/10 13:08:49;;;;;;;;;;;2.40;99.90;;;;;;5020609;28;235565;-68
2023/03/10 13:11:18;;;;;;;;;;;2.40;99.90;;;;;;5044045;28;19974;-67
2023/03/10 13:13:48;;;;;;;;;;;2.30;99.90;;;;;;5038580;28;209028;-68
2023/03/10 13:16:16;;;;;;;;;;;2.40;99.90;;;;;;5031700;28;19924;-68
2023/03/10 13:18:49;;;;;;;;;;;2.30;99.90;;;;;;5011471;28;208159;-68
2023/03/10 13:21:28;;;;;;;;;;;2.20;99.90;;;;;;5062759;28;20436;-68
2023/03/10 13:23:55;;;;;;;;;;;2.10;99.90;;;;;;5016238;28;179808;-67
2023/03/10 13:26:23;;;;;;;;;;;2.30;99.90;;;;;;5045143;28;19932;-69
2023/03/10 13:28:53;;;;;;;;;;;2.20;99.90;;;;;;5019788;28;228612;-69
2023/03/10 13:31:21;;;;;;;;;;;2.20;99.90;;;;;;5071049;28;20003;-69
2023/03/10 13:33:47;;;;;;;;;;;2.20;99.90;;;;;;4992062;28;235391;-68
2023/03/10 13:36:23;;;;;;;;;;;2.20;99.90;;;;;;5044162;28;19923;-68
2023/03/10 13:38:49;;;;;;;;;;;2.10;99.90;;;;;;5015630;28;211346;-69
2023/03/10 13:41:15;;;;;;;;;;;2.10;99.90;;;;;;5059077;28;19962;-68
2023/03/10 13:43:47;;;;;;;;;;;2.10;99.90;;;;;;5003524;28;208371;-65
2023/03/10 13:46:14;;;;;;;;;;;2.10;99.90;;;;;;5058228;28;19925;-67
2023/03/10 13:48:40;;;;;;;;;;;2.10;99.90;;;;;;4996097;28;211379;-68
2023/03/10 13:51:06;;;;;;;;;;;2.10;99.90;;;;;;5057573;28;19931;-68
2023/03/10 13:53:32;;;;;;;;;;;2.00;99.90;;;;;;5040906;28;208618;-68
2023/03/10 13:55:58;;;;;;;;;;;2.00;99.90;;;;;;4965717;28;20623;-68
2023/03/10 13:58:24;;;;;;;;;;;2.00;99.90;;;;;;5055700;28;19935;-66
2023/03/10 14:00:55;;;;;;;;;;;2.00;99.90;;;;;;5013106;28;220570;-66
2023/03/10 14:03:20;;;;;;;;;;;1.90;99.90;;;;;;5057671;28;19944;-66
2023/03/10 14:05:47;;;;;;;;;;;1.90;99.90;;;;;;4969817;28;229921;-67
2023/03/10 14:08:22;;;;;;;;;;;1.90;99.90;;;;;;5060977;28;19924;-67
2023/03/10 14:10:48;;;;;;;;;;;1.80;99.90;;;;;;4998455;28;208007;-66
2023/03/10 14:13:34;;;;;;;;;;;1.80;99.90;;;;;;5065444;28;19925;-67
2023/03/10 14:16:00;;;;;;;;;;;1.70;99.90;;;;;;4985521;28;20459;-65
2023/03/10 14:18:32;;;;;;;;;;;1.70;99.90;;;;;;5040278;28;20720;-66
2023/03/10 14:21:18;;;;;;;;;;;1.70;99.90;;;;;;4981992;28;90657;-65
2023/03/10 14:23:44;;;;;;;;;;;1.60;99.90;;;;;;5001352;28;229011;-67
2023/03/10 14:26:14;;;;;;;;;;;1.60;99.90;;;;;;5079617;28;19947;-67
2023/03/10 14:28:40;;;;;;;;;;;1.60;99.90;;;;;;5012755;28;209058;-66